Time;durP1;ratioP1;P1;durP2;ratioP2;P2;SDS_P1;SDS_P2;PMS_P1;PMS_P2;Temp;Humidity;BMP_temperature;BMP_pressure;BME280_temperature;BME280_humidity;BME280_pressure;Samples;Min_cycle;Max_cycle;Signal;HPM_P1;HPM_P2
2023/07/03 00:00:17;;;;;;;4.32;1.80;;;21.30;82.80;;;;;;4793568;29;20072;-77
2023/07/03 00:02:52;;;;;;;4.22;1.50;;;21.00;82.20;;;;;;4801124;29;20539;-76
2023/07/03 00:05:21;;;;;;;4.68;1.85;;;21.00;82.10;;;;;;4814004;29;20046;-76
2023/07/03 00:07:49;;;;;;;5.57;2.33;;;20.60;81.90;;;;;;4806688;29;20070;-76
2023/07/03 00:10:17;;;;;;;3.60;1.67;;;20.90;82.20;;;;;;4784508;29;20057;-76
2023/07/03 00:12:45;;;;;;;5.72;1.95;;;21.00;82.40;;;;;;4804411;29;20156;-76
2023/07/03 00:15:15;;;;;;;4.18;1.85;;;21.00;82.10;;;;;;4800622;29;21030;-76
2023/07/03 00:17:45;;;;;;;4.65;2.08;;;21.10;83.60;;;;;;4811102;29;20049;-76
2023/07/03 00:20:14;;;;;;;4.22;1.73;;;21.10;83.20;;;;;;4803415;29;20050;-76
2023/07/03 00:22:43;;;;;;;3.80;1.85;;;20.50;83.40;;;;;;4796681;29;20072;-76
2023/07/03 00:25:14;;;;;;;5.05;2.05;;;20.90;84.70;;;;;;4817068;29;20046;-76
2023/07/03 00:27:42;;;;;;;2.50;1.45;;;20.90;84.30;;;;;;4813945;29;20050;-76
2023/07/03 00:30:11;;;;;;;3.80;1.70;;;20.80;85.50;;;;;;4798011;29;20100;-76
2023/07/03 00:32:38;;;;;;;6.63;2.15;;;20.90;85.30;;;;;;4800226;29;20063;-76
2023/07/03 00:35:09;;;;;;;3.50;1.83;;;20.70;86.10;;;;;;4814128;29;20118;-76
2023/07/03 00:37:40;;;;;;;3.95;1.42;;;20.40;86.40;;;;;;4787315;29;21345;-76
2023/07/03 00:40:10;;;;;;;3.83;1.40;;;20.60;86.40;;;;;;4813388;29;20233;-76
2023/07/03 00:42:38;;;;;;;4.30;1.92;;;20.70;87.20;;;;;;4820320;29;20050;-76
2023/07/03 00:45:08;;;;;;;3.60;1.40;;;20.40;86.50;;;;;;4814282;29;20542;-76
2023/07/03 00:47:37;;;;;;;3.75;1.45;;;20.50;86.10;;;;;;4798312;29;20058;-76
2023/07/03 00:50:08;;;;;;;4.93;1.70;;;20.10;85.60;;;;;;4801155;29;20058;-76
2023/07/03 00:52:38;;;;;;;5.03;1.67;;;20.70;86.70;;;;;;4784304;29;20054;-76
2023/07/03 00:55:10;;;;;;;5.07;2.00;;;19.30;86.20;;;;;;4788149;29;20055;-76
2023/07/03 00:57:38;;;;;;;4.07;1.90;;;20.20;86.70;;;;;;4818581;29;20253;-76
2023/07/03 01:00:06;;;;;;;5.93;2.22;;;20.50;86.10;;;;;;4806399;29;20084;-76
2023/07/03 01:02:50;;;;;;;5.43;2.70;;;21.00;86.30;;;;;;4801104;29;20846;-76
2023/07/03 01:05:34;;;;;;;6.07;1.83;;;20.40;86.10;;;;;;4760153;29;20103;-76
2023/07/03 01:08:03;;;;;;;4.70;2.00;;;20.40;86.10;;;;;;4783799;29;20058;-76
2023/07/03 01:10:35;;;;;;;5.25;2.55;;;20.70;85.90;;;;;;4790242;29;20062;-76
2023/07/03 01:13:06;;;;;;;5.18;2.22;;;20.50;85.70;;;;;;4800785;29;20054;-76
2023/07/03 01:15:40;;;;;;;5.13;2.17;;;20.50;86.30;;;;;;4797437;29;20110;-76
2023/07/03 01:18:13;;;;;;;6.70;2.05;;;20.50;85.70;;;;;;4793073;29;20054;-76
2023/07/03 01:20:50;;;;;;;4.82;2.20;;;20.50;85.60;;;;;;4785042;29;20058;-76
2023/07/03 01:23:44;;;;;;;6.43;2.25;;;20.10;85.70;;;;;;4799157;29;20050;-76
2023/07/03 01:26:14;;;;;;;4.45;2.25;;;20.50;87.40;;;;;;4800069;29;20053;-76
2023/07/03 01:28:44;;;;;;;5.53;1.90;;;20.50;87.50;;;;;;4803167;29;20553;-76
2023/07/03 01:31:15;;;;;;;5.45;2.25;;;20.50;87.20;;;;;;4820318;29;20536;-76
2023/07/03 01:33:45;;;;;;;6.10;2.60;;;20.30;87.20;;;;;;4814391;29;20092;-76
2023/07/03 01:36:14;;;;;;;5.85;2.33;;;20.40;86.80;;;;;;4773999;29;20141;-76
2023/07/03 01:38:47;;;;;;;4.43;2.20;;;20.30;86.70;;;;;;4782308;29;20110;-76
2023/07/03 01:41:16;;;;;;;4.50;2.35;;;21.60;87.50;;;;;;4798014;29;20411;-76
2023/07/03 01:43:46;;;;;;;4.78;2.03;;;20.40;86.60;;;;;;4799800;29;20129;-76
2023/07/03 01:46:15;;;;;;;5.75;2.28;;;19.50;86.70;;;;;;4787764;29;20093;-76
2023/07/03 01:48:43;;;;;;;5.50;2.28;;;20.40;88.10;;;;;;4770133;29;20123;-76
2023/07/03 01:51:19;;;;;;;6.20;2.00;;;20.40;88.30;;;;;;4760538;29;20526;-76
2023/07/03 01:53:55;;;;;;;5.13;2.00;;;19.20;87.10;;;;;;4782849;29;20054;-76
2023/07/03 01:56:30;;;;;;;4.45;2.22;;;20.30;87.30;;;;;;4784733;29;20100;-76
2023/07/03 01:59:13;;;;;;;6.30;2.92;;;20.30;87.10;;;;;;4767933;29;22376;-76
2023/07/03 02:01:50;;;;;;;4.97;2.40;;;20.30;87.20;;;;;;4798839;29;20520;-76
2023/07/03 02:04:45;;;;;;;6.68;2.00;;;20.30;87.00;;;;;;4796108;29;20988;-76
2023/07/03 02:07:16;;;;;;;5.63;2.50;;;20.40;88.30;;;;;;4787676;29;20062;-76
2023/07/03 02:09:46;;;;;;;4.82;2.97;;;20.30;88.90;;;;;;4779833;29;20043;-76
2023/07/03 02:12:14;;;;;;;3.83;1.98;;;20.30;89.90;;;;;;4796826;29;20050;-76
2023/07/03 02:14:43;;;;;;;4.72;2.08;;;20.20;90.00;;;;;;4802355;29;20043;-76
2023/07/03 02:17:12;;;;;;;3.33;1.48;;;20.00;90.30;;;;;;4773910;29;20054;-76
2023/07/03 02:19:40;;;;;;;4.72;1.70;;;20.20;90.40;;;;;;4779425;29;20768;-76
2023/07/03 02:22:08;;;;;;;4.78;2.03;;;20.10;89.70;;;;;;4796488;29;20055;-76
2023/07/03 02:24:38;;;;;;;3.53;2.17;;;20.00;89.70;;;;;;4774087;29;20186;-76
2023/07/03 02:27:06;;;;;;;5.22;1.95;;;20.10;90.00;;;;;;4772942;29;20079;-76
2023/07/03 02:29:35;;;;;;;4.57;2.28;;;20.10;90.40;;;;;;4780714;29;20058;-76
2023/07/03 02:32:09;;;;;;;5.47;2.38;;;20.20;90.90;;;;;;4795479;29;20058;-76
2023/07/03 02:34:37;;;;;;;4.57;2.30;;;19.90;91.20;;;;;;4756424;29;22126;-76
2023/07/03 02:37:04;;;;;;;5.70;2.38;;;20.00;91.50;;;;;;4778584;29;20080;-76
2023/07/03 02:39:34;;;;;;;5.65;2.38;;;19.90;91.30;;;;;;4778150;29;20066;-76
2023/07/03 02:42:02;;;;;;;5.45;2.60;;;19.90;91.60;;;;;;4787181;29;20055;-76
2023/07/03 02:44:29;;;;;;;5.03;2.75;;;19.80;91.70;;;;;;4791486;29;20070;-76
2023/07/03 02:46:59;;;;;;;5.55;3.03;;;19.80;91.30;;;;;;4804013;29;20599;-76
2023/07/03 02:49:30;;;;;;;4.90;2.05;;;19.70;91.10;;;;;;4770982;29;20054;-76
2023/07/03 02:52:04;;;;;;;5.50;2.30;;;19.70;91.10;;;;;;4770070;29;20055;-76
2023/07/03 02:54:33;;;;;;;5.95;2.35;;;19.70;90.90;;;;;;4788814;29;20058;-76
2023/07/03 02:57:02;;;;;;;4.85;2.50;;;19.70;90.90;;;;;;4798070;29;20191;-76
2023/07/03 02:59:29;;;;;;;5.28;2.42;;;19.90;91.20;;;;;;4799924;29;20065;-76
2023/07/03 03:01:58;;;;;;;4.95;2.28;;;19.70;92.00;;;;;;4785147;29;20046;-76
2023/07/03 03:04:28;;;;;;;7.03;2.38;;;19.60;91.60;;;;;;4800755;29;20050;-76
2023/07/03 03:06:56;;;;;;;5.95;2.58;;;19.60;91.70;;;;;;4768366;29;20530;-76
2023/07/03 03:09:23;;;;;;;5.82;2.45;;;19.60;92.00;;;;;;4775835;29;20053;-76
2023/07/03 03:11:52;;;;;;;5.88;2.17;;;19.50;92.00;;;;;;4768377;29;20061;-76
2023/07/03 03:14:23;;;;;;;7.93;2.85;;;19.50;92.20;;;;;;4792752;29;20154;-76
2023/07/03 03:16:51;;;;;;;5.75;2.53;;;18.30;91.60;;;;;;4787331;29;20069;-76
2023/07/03 03:19:22;;;;;;;5.10;2.40;;;19.50;92.00;;;;;;4780220;29;20195;-76
2023/07/03 03:21:50;;;;;;;5.57;2.83;;;19.90;92.20;;;;;;4810090;29;20039;-76
2023/07/03 03:24:20;;;;;;;7.55;3.10;;;19.50;92.30;;;;;;4783826;29;20411;-76
2023/07/03 03:26:47;;;;;;;4.38;2.58;;;19.30;92.30;;;;;;4780719;29;20039;-76
2023/07/03 03:29:15;;;;;;;5.90;3.15;;;19.50;93.00;;;;;;4800205;29;20625;-76
2023/07/03 03:31:43;;;;;;;5.65;3.28;;;19.40;92.90;;;;;;4769845;29;20498;-76
2023/07/03 03:34:12;;;;;;;5.72;2.90;;;19.50;93.10;;;;;;4798313;29;21653;-76
2023/07/03 03:36:40;;;;;;;6.05;3.30;;;19.50;93.70;;;;;;4791421;29;20058;-76
2023/07/03 03:39:09;;;;;;;6.80;3.40;;;19.50;93.80;;;;;;4787867;29;20050;-76
2023/07/03 03:41:36;;;;;;;6.88;2.67;;;19.50;93.20;;;;;;4786042;29;20082;-76
2023/07/03 03:44:10;;;;;;;5.72;2.70;;;19.50;92.90;;;;;;4811767;29;20132;-76
2023/07/03 03:46:37;;;;;;;5.35;2.03;;;19.70;94.20;;;;;;4768024;29;20059;-76
2023/07/03 03:49:05;;;;;;;6.13;2.63;;;19.60;94.00;;;;;;4797805;29;20062;-76
2023/07/03 03:51:33;;;;;;;8.10;3.60;;;19.70;93.70;;;;;;4795385;29;20054;-76
2023/07/03 03:54:01;;;;;;;5.60;2.17;;;19.80;93.10;;;;;;4783486;29;20055;-76
2023/07/03 03:56:28;;;;;;;7.88;3.10;;;19.80;93.10;;;;;;4787853;29;22393;-76
2023/07/03 03:58:56;;;;;;;8.15;2.90;;;19.70;92.60;;;;;;4791226;29;20431;-76
2023/07/03 04:01:24;;;;;;;7.00;2.95;;;19.80;92.60;;;;;;4789238;29;20110;-76
2023/07/03 04:03:51;;;;;;;6.88;2.80;;;19.90;92.60;;;;;;4801952;29;20057;-76
2023/07/03 04:06:19;;;;;;;6.53;2.85;;;19.80;92.50;;;;;;4765311;29;20823;-76
2023/07/03 04:08:48;;;;;;;6.03;2.60;;;19.90;92.50;;;;;;4769916;29;20054;-76
2023/07/03 04:11:15;;;;;;;4.15;2.28;;;19.60;92.50;;;;;;4795000;29;20062;-76
2023/07/03 04:13:42;;;;;;;5.43;2.83;;;20.00;92.20;;;;;;4781920;29;20146;-76
2023/07/03 04:16:11;;;;;;;5.32;2.38;;;20.00;91.90;;;;;;4779007;29;20050;-77
2023/07/03 04:18:40;;;;;;;6.88;3.03;;;20.10;92.10;;;;;;4762268;29;20054;-76
2023/07/03 04:21:07;;;;;;;5.82;2.60;;;20.10;92.40;;;;;;4783442;29;20085;-76
2023/07/03 04:23:35;;;;;;;5.97;2.83;;;20.20;92.70;;;;;;4776600;29;20062;-76
2023/07/03 04:26:02;;;;;;;6.20;2.42;;;20.30;92.60;;;;;;4792477;29;20050;-76
2023/07/03 04:28:29;;;;;;;7.22;2.63;;;20.30;92.20;;;;;;4789333;29;20072;-76
2023/07/03 04:30:57;;;;;;;4.40;2.38;;;20.30;92.10;;;;;;4782417;29;20137;-76
2023/07/03 04:33:24;;;;;;;5.68;2.72;;;20.40;91.90;;;;;;4769780;29;20097;-76
2023/07/03 04:35:51;;;;;;;5.93;2.42;;;20.50;92.20;;;;;;4781035;29;20129;-76
2023/07/03 04:38:23;;;;;;;5.75;2.75;;;20.60;92.00;;;;;;4769914;29;20056;-76
2023/07/03 04:40:53;;;;;;;6.82;2.70;;;20.70;91.40;;;;;;4793617;29;20088;-76
2023/07/03 04:43:21;;;;;;;6.55;2.92;;;20.70;91.20;;;;;;4781575;29;20046;-76
2023/07/03 04:45:52;;;;;;;4.22;2.00;;;21.00;90.90;;;;;;4787181;29;20086;-76
2023/07/03 04:48:20;;;;;;;8.50;2.90;;;20.80;90.70;;;;;;4793848;29;20053;-76
2023/07/03 04:50:48;;;;;;;5.40;2.42;;;20.90;90.70;;;;;;4803182;29;20053;-76
2023/07/03 04:53:20;;;;;;;4.70;2.38;;;21.00;90.30;;;;;;4797167;29;20555;-76
2023/07/03 04:55:49;;;;;;;7.43;2.65;;;21.10;90.40;;;;;;4795849;29;20057;-76
2023/07/03 04:58:17;;;;;;;4.72;2.13;;;21.20;89.90;;;;;;4782492;29;20050;-77
2023/07/03 05:00:44;;;;;;;4.85;2.67;;;21.20;89.20;;;;;;4797063;29;20554;-76
2023/07/03 05:03:11;;;;;;;5.07;2.63;;;21.20;88.30;;;;;;4805793;29;20054;-76
2023/07/03 05:05:41;;;;;;;6.15;2.58;;;21.40;88.20;;;;;;4773257;29;20058;-76
2023/07/03 05:08:09;;;;;;;5.65;2.72;;;21.50;87.60;;;;;;4810020;29;20394;-76
2023/07/03 05:10:37;;;;;;;6.03;3.05;;;21.60;87.30;;;;;;4792700;29;20054;-76
2023/07/03 05:13:06;;;;;;;7.43;2.40;;;21.60;86.30;;;;;;4804027;29;20057;-76
2023/07/03 05:15:33;;;;;;;5.47;2.60;;;21.70;86.10;;;;;;4786545;29;20058;-76
2023/07/03 05:18:01;;;;;;;5.90;2.85;;;21.80;85.30;;;;;;4790362;29;20289;-76
2023/07/03 05:20:32;;;;;;;4.18;2.17;;;22.00;85.50;;;;;;4806854;29;20446;-76
2023/07/03 05:22:59;;;;;;;6.63;2.50;;;22.20;84.10;;;;;;4806242;29;20058;-76
2023/07/03 05:25:29;;;;;;;6.38;2.58;;;22.20;82.70;;;;;;4786447;29;20093;-76
2023/07/03 05:27:56;;;;;;;4.75;2.47;;;22.30;82.50;;;;;;4774599;29;22971;-76
2023/07/03 05:30:23;;;;;;;7.15;2.40;;;22.40;81.90;;;;;;4791939;29;20179;-76
2023/07/03 05:32:51;;;;;;;6.90;2.50;;;22.60;82.20;;;;;;4795424;29;20716;-76
2023/07/03 05:35:19;;;;;;;5.75;2.33;;;22.60;80.90;;;;;;4795069;29;20094;-76
2023/07/03 05:37:46;;;;;;;7.75;2.83;;;22.60;80.10;;;;;;4796806;29;20054;-76
2023/07/03 05:40:14;;;;;;;7.50;3.40;;;22.70;79.70;;;;;;4771090;29;20057;-76
2023/07/03 05:42:43;;;;;;;8.10;3.08;;;22.80;78.70;;;;;;4794030;29;20060;-76
2023/07/03 05:45:10;;;;;;;5.97;2.20;;;23.00;78.20;;;;;;4779197;29;21177;-76
2023/07/03 05:47:37;;;;;;;8.48;2.67;;;23.10;77.90;;;;;;4792765;29;20659;-76
2023/07/03 05:50:05;;;;;;;4.55;2.13;;;23.30;77.40;;;;;;4771159;29;20058;-76
2023/07/03 05:52:33;;;;;;;5.93;2.78;;;23.40;77.80;;;;;;4794225;29;20547;-76
2023/07/03 05:55:01;;;;;;;7.97;2.13;;;23.60;77.60;;;;;;4778351;29;20813;-76
2023/07/03 05:57:29;;;;;;;6.22;3.03;;;23.50;77.00;;;;;;4784010;29;20787;-77
2023/07/03 05:59:56;;;;;;;7.35;2.53;;;23.70;76.90;;;;;;4756103;29;20203;-77
2023/07/03 06:02:23;;;;;;;6.43;2.50;;;23.80;76.40;;;;;;4771666;29;20058;-77
2023/07/03 06:04:51;;;;;;;6.70;2.63;;;23.90;77.40;;;;;;4783989;29;20197;-76
2023/07/03 06:07:18;;;;;;;8.15;2.58;;;23.90;76.40;;;;;;4790275;29;20050;-76
2023/07/03 06:09:45;;;;;;;5.47;3.28;;;23.80;75.00;;;;;;4785877;29;20080;-76
2023/07/03 06:12:13;;;;;;;4.38;2.20;;;23.90;75.80;;;;;;4783168;29;21318;-76
2023/07/03 06:14:40;;;;;;;4.47;2.40;;;24.20;77.00;;;;;;4782414;29;20172;-77
2023/07/03 06:17:07;;;;;;;5.03;2.60;;;24.20;76.40;;;;;;4801360;29;20294;-76
2023/07/03 06:19:34;;;;;;;7.78;2.42;;;24.30;75.90;;;;;;4802743;29;20137;-76
2023/07/03 06:22:02;;;;;;;5.38;2.70;;;24.30;75.00;;;;;;4784953;29;20058;-76
2023/07/03 06:24:29;;;;;;;4.25;2.05;;;24.40;74.10;;;;;;4784006;29;20695;-76
2023/07/03 06:26:57;;;;;;;5.22;2.30;;;24.50;74.40;;;;;;4785631;29;21311;-77
2023/07/03 06:29:24;;;;;;;8.25;2.72;;;24.60;74.30;;;;;;4790797;29;20054;-77
2023/07/03 06:31:52;;;;;;;4.05;2.20;;;24.80;73.40;;;;;;4779943;29;20066;-76
2023/07/03 06:34:19;;;;;;;5.80;2.30;;;24.80;71.80;;;;;;4789498;29;20054;-76
2023/07/03 06:36:46;;;;;;;4.15;2.13;;;24.90;71.90;;;;;;4777056;29;20053;-76
2023/07/03 06:39:13;;;;;;;6.47;2.17;;;25.00;71.40;;;;;;4783336;29;20179;-77
2023/07/03 06:41:41;;;;;;;5.22;2.17;;;25.00;71.50;;;;;;4795149;29;20066;-77
2023/07/03 06:44:12;;;;;;;5.68;2.40;;;25.20;71.60;;;;;;4759686;29;20065;-77
2023/07/03 06:46:40;;;;;;;4.45;2.30;;;25.10;70.80;;;;;;4793148;29;20054;-76
2023/07/03 06:49:07;;;;;;;6.55;2.25;;;25.40;70.10;;;;;;4761815;29;20446;-77
2023/07/03 06:51:36;;;;;;;5.03;2.40;;;25.30;70.00;;;;;;4783345;29;20089;-76
2023/07/03 06:54:03;;;;;;;4.60;2.15;;;25.40;69.10;;;;;;4763290;29;20810;-77
2023/07/03 06:56:30;;;;;;;3.88;1.98;;;25.40;68.30;;;;;;4783148;29;20073;-76
2023/07/03 06:58:58;;;;;;;3.38;1.67;;;25.60;67.80;;;;;;4783711;29;20046;-76
2023/07/03 07:01:28;;;;;;;3.90;1.77;;;25.70;67.10;;;;;;4774825;29;20046;-76
2023/07/03 07:03:56;;;;;;;3.85;2.00;;;25.80;67.50;;;;;;4791408;29;20050;-76
2023/07/03 07:06:25;;;;;;;3.22;1.70;;;25.90;66.40;;;;;;4759218;29;20286;-76
2023/07/03 07:08:53;;;;;;;3.75;2.00;;;26.10;67.70;;;;;;4776440;29;20074;-76
2023/07/03 07:11:33;;;;;;;3.85;2.50;;;26.20;66.40;;;;;;4774653;29;20058;-78
2023/07/03 07:14:03;;;;;;;4.55;1.70;;;26.30;67.50;;;;;;4795920;29;20746;-77
2023/07/03 07:16:34;;;;;;;4.00;2.05;;;26.30;64.80;;;;;;4793860;29;20735;-77
2023/07/03 07:19:05;;;;;;;3.17;1.55;;;26.40;64.10;;;;;;4776594;29;20046;-77
2023/07/03 07:21:35;;;;;;;5.45;1.60;;;26.50;63.70;;;;;;4793282;29;20182;-76
2023/07/03 07:24:18;;;;;;;3.28;1.60;;;26.60;63.30;;;;;;4787727;29;20236;-77
2023/07/03 07:26:46;;;;;;;5.00;1.80;;;26.50;62.60;;;;;;4770731;29;20058;-77
2023/07/03 07:29:14;;;;;;;3.60;1.55;;;26.70;58.90;;;;;;4785194;29;20514;-78
2023/07/03 07:31:41;;;;;;;4.30;1.38;;;26.60;58.30;;;;;;4753272;29;20283;-80
2023/07/03 07:34:10;;;;;;;3.47;1.70;;;26.70;57.70;;;;;;4765489;29;20065;-77
2023/07/03 07:36:38;;;;;;;7.05;2.08;;;26.90;58.30;;;;;;4786620;29;20058;-80
2023/07/03 07:39:07;;;;;;;3.95;1.70;;;27.00;55.90;;;;;;4767671;29;20056;-77
2023/07/03 07:41:34;;;;;;;2.95;1.85;;;27.00;54.90;;;;;;4770196;29;20046;-77
2023/07/03 07:44:01;;;;;;;4.38;1.95;;;27.10;56.80;;;;;;4782572;29;20050;-76
2023/07/03 07:46:30;;;;;;;5.07;2.40;;;27.10;57.20;;;;;;4811419;29;20057;-78
2023/07/03 07:49:01;;;;;;;4.60;2.60;;;27.10;55.40;;;;;;4799038;29;20182;-77
2023/07/03 07:51:29;;;;;;;7.00;3.10;;;27.20;54.30;;;;;;4796255;29;20518;-79
2023/07/03 07:53:57;;;;;;;6.88;3.33;;;27.30;52.80;;;;;;4787230;29;20061;-79
2023/07/03 07:56:25;;;;;;;4.63;2.33;;;27.20;52.60;;;;;;4805032;29;20814;-76
2023/07/03 07:58:52;;;;;;;6.90;3.22;;;27.10;52.80;;;;;;4802682;29;20052;-77
2023/07/03 08:01:19;;;;;;;5.53;2.83;;;27.30;53.70;;;;;;4801819;29;20049;-77
2023/07/03 08:03:47;;;;;;;7.10;2.75;;;27.30;53.20;;;;;;4813427;29;20125;-76
2023/07/03 08:06:15;;;;;;;8.40;3.33;;;27.20;53.10;;;;;;4783267;29;20180;-76
2023/07/03 08:08:43;;;;;;;9.23;3.55;;;27.00;51.20;;;;;;4787921;29;20080;-76
2023/07/03 08:11:10;;;;;;;7.65;3.47;;;27.00;51.90;;;;;;4802556;29;20598;-76
2023/07/03 08:13:39;;;;;;;6.47;2.90;;;27.20;53.00;;;;;;4792006;29;20050;-77
2023/07/03 08:16:10;;;;;;;6.68;2.60;;;27.30;52.20;;;;;;4768638;29;20815;-80
2023/07/03 08:18:38;;;;;;;7.18;2.80;;;27.30;52.20;;;;;;4785966;29;20103;-75
2023/07/03 08:21:05;;;;;;;5.78;2.92;;;27.30;52.20;;;;;;4783024;29;20038;-77
2023/07/03 08:23:32;;;;;;;6.32;2.90;;;27.50;52.20;;;;;;4805072;29;20058;-76
2023/07/03 08:26:01;;;;;;;5.82;2.78;;;27.50;51.70;;;;;;4783052;29;20088;-75
2023/07/03 08:28:29;;;;;;;6.60;2.72;;;27.40;52.10;;;;;;4785952;29;21148;-76
2023/07/03 08:30:57;;;;;;;5.78;3.13;;;27.50;52.40;;;;;;4770106;29;20498;-75
2023/07/03 08:33:25;;;;;;;6.70;3.22;;;27.40;49.60;;;;;;4799938;29;20696;-77
2023/07/03 08:35:53;;;;;;;7.93;3.58;;;27.40;50.20;;;;;;4772705;29;20073;-77
2023/07/03 08:38:24;;;;;;;6.90;3.15;;;27.60;52.00;;;;;;4779713;29;20058;-76
2023/07/03 08:40:59;;;;;;;7.10;3.30;;;27.60;51.10;;;;;;4785460;29;20702;-77
2023/07/03 08:43:41;;;;;;;6.50;3.35;;;27.70;50.60;;;;;;4769810;29;21360;-77
2023/07/03 08:46:12;;;;;;;6.00;3.17;;;27.60;50.10;;;;;;4784654;29;20145;-77
2023/07/03 08:48:42;;;;;;;6.28;2.95;;;27.50;50.30;;;;;;4785199;29;20510;-77
2023/07/03 08:51:14;;;;;;;8.88;4.95;;;27.60;51.10;;;;;;4790976;29;20550;-77
2023/07/03 08:53:43;;;;;;;;;;;27.60;50.10;;;;;;4789363;29;20062;-79
2023/07/03 08:56:22;;;;;;;7.07;3.33;;;27.50;50.40;;;;;;4803025;29;20632;-78
2023/07/03 08:58:55;;;;;;;6.05;3.08;;;27.70;50.10;;;;;;4798034;29;20085;-77
2023/07/03 09:01:22;;;;;;;9.63;3.85;;;27.50;49.60;;;;;;4804063;29;20050;-77
2023/07/03 09:04:20;;;;;;;12.77;4.32;;;27.50;50.00;;;;;;4791901;29;21591;-75
2023/07/03 09:07:00;;;;;;;5.00;2.80;;;27.60;50.10;;;;;;4797603;29;20538;-77
2023/07/03 09:09:48;;;;;;;7.07;4.05;;;27.70;49.50;;;;;;4786257;29;20069;-76
2023/07/03 09:12:30;;;;;;;8.45;3.70;;;27.70;50.10;;;;;;4800547;29;20089;-76
2023/07/03 09:15:27;;;;;;;9.48;3.85;;;27.50;49.80;;;;;;4802779;29;20068;-77
2023/07/03 09:17:58;;;;;;;7.07;3.70;;;27.60;50.30;;;;;;4778356;29;20706;-76
2023/07/03 09:20:27;;;;;;;7.63;3.45;;;27.60;49.90;;;;;;4784025;29;22330;-76
2023/07/03 09:23:14;;;;;;;8.75;4.15;;;27.90;50.40;;;;;;4797914;29;20160;-76
2023/07/03 09:26:04;;;;;;;7.38;3.97;;;27.80;49.60;;;;;;4768637;29;20081;-76
2023/07/03 09:28:38;;;;;;;8.40;4.10;;;27.90;51.70;;;;;;4801191;29;20050;-76
2023/07/03 09:31:05;;;;;;;7.85;3.72;;;27.90;50.00;;;;;;4784216;29;20217;-76
2023/07/03 09:33:33;;;;;;;6.47;3.60;;;28.00;51.00;;;;;;4772724;29;20414;-77
2023/07/03 09:36:19;;;;;;;8.85;4.00;;;27.90;50.70;;;;;;4810031;29;20072;-76
2023/07/03 09:38:47;;;;;;;9.82;4.85;;;28.00;50.70;;;;;;4781049;29;20058;-79
2023/07/03 09:41:23;;;;;;;8.77;4.60;;;28.00;50.30;;;;;;4812559;29;20407;-78
2023/07/03 09:43:51;;;;;;;8.85;5.28;;;27.90;50.90;;;;;;4765362;29;20053;-77
2023/07/03 09:46:20;;;;;;;7.63;4.57;;;27.90;49.80;;;;;;4798966;29;20088;-77
2023/07/03 09:48:47;;;;;;;12.48;4.68;;;27.90;50.00;;;;;;4788234;29;20191;-77
2023/07/03 09:51:28;;;;;;;7.97;4.40;;;27.90;49.70;;;;;;4786870;29;20646;-77
2023/07/03 09:53:57;;;;;;;12.23;5.22;;;27.50;48.50;;;;;;4787775;29;20531;-76
2023/07/03 09:56:28;;;;;;;9.95;5.20;;;27.60;49.70;;;;;;4801118;29;20865;-77
2023/07/03 09:59:01;;;;;;;9.38;5.13;;;27.70;50.20;;;;;;4776307;29;20058;-77
2023/07/03 10:01:30;;;;;;;9.23;4.93;;;27.80;51.30;;;;;;4764121;29;20050;-78
2023/07/03 10:04:06;;;;;;;8.30;4.25;;;27.90;51.10;;;;;;4778189;29;20057;-76
2023/07/03 10:06:37;;;;;;;8.20;4.32;;;27.90;50.40;;;;;;4799926;29;20116;-77
2023/07/03 10:09:17;;;;;;;9.15;4.90;;;28.00;51.20;;;;;;4784601;29;20191;-79
2023/07/03 10:12:13;;;;;;;10.38;4.85;;;28.00;50.50;;;;;;4789715;29;20045;-77
2023/07/03 10:14:51;;;;;;;8.23;4.40;;;27.90;51.00;;;;;;4800875;29;20082;-78
2023/07/03 10:17:37;;;;;;;7.47;4.10;;;28.10;51.50;;;;;;4801935;29;20177;-77
2023/07/03 10:20:14;;;;;;;10.38;5.32;;;28.10;52.20;;;;;;4783938;29;20646;-76
2023/07/03 10:22:43;;;;;;;10.00;4.88;;;28.00;51.10;;;;;;4782660;29;20062;-77
2023/07/03 10:25:17;;;;;;;8.35;4.68;;;27.90;51.40;;;;;;4784961;29;20054;-76
2023/07/03 10:27:47;;;;;;;10.25;4.90;;;27.90;50.80;;;;;;4800443;29;20056;-79
2023/07/03 10:30:18;;;;;;;8.68;4.90;;;28.10;52.20;;;;;;4805307;29;20157;-78
2023/07/03 10:32:52;;;;;;;9.25;4.85;;;28.00;50.60;;;;;;4795605;29;20057;-77
2023/07/03 10:35:29;;;;;;;8.60;4.68;;;28.10;52.60;;;;;;4775742;29;20054;-77
2023/07/03 10:38:13;;;;;;;8.23;4.43;;;28.10;51.30;;;;;;4780760;29;20177;-79
2023/07/03 10:40:51;;;;;;;10.27;4.35;;;28.30;52.00;;;;;;4781924;29;20205;-77
2023/07/03 10:43:21;;;;;;;9.68;4.65;;;28.10;51.60;;;;;;4768299;29;20057;-78
2023/07/03 10:45:49;;;;;;;7.35;4.68;;;28.00;51.10;;;;;;4776144;29;20065;-77
2023/07/03 10:48:27;;;;;;;9.23;5.22;;;27.90;51.20;;;;;;4782899;29;20668;-77
2023/07/03 10:51:33;;;;;;;11.80;5.75;;;27.70;50.80;;;;;;4778005;29;20053;-79
2023/07/03 10:54:09;;;;;;;10.63;4.90;;;27.80;51.00;;;;;;4770479;29;20072;-81
2023/07/03 10:56:44;;;;;;;9.02;4.80;;;27.80;51.00;;;;;;4788037;29;20054;-77
2023/07/03 10:59:22;;;;;;;10.93;4.80;;;28.00;54.10;;;;;;4800818;29;20062;-76
2023/07/03 11:02:08;;;;;;;9.30;5.43;;;28.10;55.10;;;;;;4804526;29;20046;-78
2023/07/03 11:04:54;;;;;;;10.73;5.20;;;28.10;53.80;;;;;;4800376;29;20118;-78
2023/07/03 11:07:53;;;;;;;9.02;5.03;;;28.10;52.40;;;;;;4787851;29;20061;-78
2023/07/03 11:10:53;;;;;;;9.13;4.80;;;27.90;52.20;;;;;;4803138;29;20101;-78
2023/07/03 11:13:24;;;;;;;10.52;6.00;;;27.90;53.60;;;;;;4787838;29;20201;-78
2023/07/03 11:16:06;;;;;;;10.07;5.28;;;27.80;51.70;;;;;;4802577;29;20129;-77
2023/07/03 11:18:56;;;;;;;10.27;5.17;;;27.90;52.40;;;;;;4786792;29;20057;-77
2023/07/03 11:21:34;;;;;;;8.07;4.80;;;28.00;51.80;;;;;;4777578;29;22767;-77
2023/07/03 11:24:33;;;;;;;8.75;4.95;;;27.90;51.70;;;;;;4788842;29;20906;-78
2023/07/03 11:27:09;;;;;;;12.13;5.78;;;28.10;52.40;;;;;;4815420;29;20165;-78
2023/07/03 11:29:39;;;;;;;10.23;4.75;;;28.00;52.30;;;;;;4803131;29;20057;-78
2023/07/03 11:32:08;;;;;;;9.52;5.00;;;28.10;52.40;;;;;;4797054;29;20065;-77
2023/07/03 11:34:35;;;;;;;10.50;5.45;;;28.20;51.30;;;;;;4789903;29;20104;-77
2023/07/03 11:37:32;;;;;;;9.68;5.15;;;28.30;53.20;;;;;;4802967;29;20125;-79
2023/07/03 11:40:35;;;;;;;10.93;5.50;;;28.40;52.30;;;;;;4811161;29;20068;-78
2023/07/03 11:43:15;;;;;;;10.18;4.50;;;28.60;54.00;;;;;;4796038;29;20050;-78
2023/07/03 11:45:58;;;;;;;;;;;28.50;53.80;;;;;;4801810;29;20065;-78
2023/07/03 11:48:43;;;;;;;10.23;5.43;;;28.40;54.60;;;;;;4781175;29;19939;-79
2023/07/03 11:51:16;;;;;;;10.68;5.32;;;28.40;52.60;;;;;;4790753;29;20414;-78
2023/07/03 11:53:53;;;;;;;9.55;5.05;;;28.30;52.70;;;;;;4791825;29;20391;-77
2023/07/03 11:56:32;;;;;;;11.35;5.28;;;28.40;52.90;;;;;;4804002;29;20097;-78
2023/07/03 11:59:09;;;;;;;10.48;4.97;;;28.50;54.20;;;;;;4806029;29;20049;-78
2023/07/03 12:01:37;;;;;;;8.50;4.88;;;28.60;53.70;;;;;;4789608;29;20189;-78
2023/07/03 12:04:07;;;;;;;10.07;4.75;;;28.80;52.80;;;;;;4790366;29;20852;-77
2023/07/03 12:06:41;;;;;;;8.90;5.03;;;28.90;54.60;;;;;;4786183;29;20054;-77
2023/07/03 12:09:29;;;;;;;10.68;5.43;;;29.10;53.70;;;;;;4790743;29;20720;-77
2023/07/03 12:11:59;;;;;;;8.02;4.72;;;29.10;54.00;;;;;;4814663;29;20186;-79
2023/07/03 12:14:56;;;;;;;9.45;5.28;;;29.20;54.60;;;;;;4805521;29;20054;-78
2023/07/03 12:17:29;;;;;;;9.52;5.25;;;29.10;53.80;;;;;;4779830;29;20054;-77
2023/07/03 12:20:17;;;;;;;10.68;4.57;;;29.10;55.00;;;;;;4802659;29;20057;-78
2023/07/03 12:22:46;;;;;;;12.57;5.80;;;29.00;55.80;;;;;;4797434;29;20215;-77
2023/07/03 12:25:22;;;;;;;9.00;4.70;;;28.80;54.80;;;;;;4764789;29;20058;-77
2023/07/03 12:27:51;;;;;;;9.57;5.28;;;28.50;52.70;;;;;;4802535;29;20060;-77
2023/07/03 12:30:28;;;;;;;11.07;4.97;;;28.30;53.40;;;;;;4783822;29;20054;-76
2023/07/03 12:32:57;;;;;;;10.27;5.10;;;28.20;53.60;;;;;;4786088;29;20057;-77
2023/07/03 12:35:32;;;;;;;7.43;4.72;;;28.20;53.40;;;;;;4798884;29;20148;-79
2023/07/03 12:38:06;;;;;;;10.13;4.88;;;28.20;53.70;;;;;;4799041;29;22407;-77
2023/07/03 12:40:41;;;;;;;8.30;4.30;;;28.10;54.30;;;;;;4795866;29;20061;-77
2023/07/03 12:43:10;;;;;;;8.60;4.88;;;28.10;55.80;;;;;;4791689;29;20054;-78
2023/07/03 12:45:37;;;;;;;9.38;5.55;;;28.20;56.10;;;;;;4805782;29;20054;-77
2023/07/03 12:48:17;;;;;;;8.68;5.03;;;28.10;55.70;;;;;;4767728;29;20086;-76
2023/07/03 12:50:56;;;;;;;7.65;4.68;;;28.00;55.80;;;;;;4781862;29;22369;-76
2023/07/03 12:53:32;;;;;;;10.35;4.55;;;28.00;56.80;;;;;;4763539;29;20061;-76
2023/07/03 12:56:08;;;;;;;7.88;4.47;;;28.00;57.00;;;;;;4781383;29;20138;-77
2023/07/03 12:58:37;;;;;;;19.60;5.50;;;27.90;56.00;;;;;;4796199;29;20584;-77
2023/07/03 13:01:08;;;;;;;8.25;4.80;;;27.90;56.50;;;;;;4795897;29;20080;-78
2023/07/03 13:03:43;;;;;;;9.93;4.65;;;27.90;56.10;;;;;;4783151;29;20200;-78
2023/07/03 13:06:23;;;;;;;9.05;4.50;;;27.70;55.30;;;;;;4795467;29;20709;-79
2023/07/03 13:08:54;;;;;;;9.13;4.95;;;27.60;56.20;;;;;;4786760;29;20518;-79